Time;durP1;ratioP1;P1;durP2;ratioP2;P2;SDS_P1;SDS_P2;PMS_P1;PMS_P2;Temp;Humidity;BMP_temperature;BMP_pressure;BME280_temperature;BME280_humidity;BME280_pressure;Samples;Min_cycle;Max_cycle;Signal;HPM_P1;HPM_P2
2022/12/10 00:01:25;;;;;;;7.30;5.20;;;;;;;0.16;98.48;96990.84;103329;1312;22651;-73
2022/12/10 00:03:52;;;;;;;9.80;5.90;;;;;;;0.16;98.46;96989.27;102827;1286;138323;-74
2022/12/10 00:06:22;;;;;;;8.40;5.70;;;;;;;0.15;98.25;96996.90;103305;1295;25306;-74
2022/12/10 00:08:49;;;;;;;9.50;5.90;;;;;;;0.13;98.37;96999.71;103147;1305;22509;-73
2022/12/10 00:11:18;;;;;;;7.40;5.70;;;;;;;0.11;98.37;96998.86;103486;1305;137852;-73
2022/12/10 00:13:46;;;;;;;8.50;6.20;;;;;;;0.09;98.39;96999.16;103457;1297;22474;-73
2022/12/10 00:16:15;;;;;;;8.40;5.90;;;;;;;0.08;98.64;97001.44;103415;1309;138442;-73
2022/12/10 00:18:42;;;;;;;9.10;6.00;;;;;;;0.07;98.92;97010.17;103561;1306;22604;-74
2022/12/10 00:21:13;;;;;;;8.30;6.10;;;;;;;0.07;98.87;97009.30;103355;1312;22217;-74
2022/12/10 00:23:41;;;;;;;10.20;7.40;;;;;;;0.08;99.08;96999.98;102904;1286;137801;-73
2022/12/10 00:26:11;;;;;;;10.70;7.80;;;;;;;0.10;99.08;97003.14;103025;1307;24266;-74
2022/12/10 00:28:40;;;;;;;11.70;7.90;;;;;;;0.11;99.06;97000.09;103087;1292;138315;-73
2022/12/10 00:31:14;;;;;;;9.90;6.00;;;;;;;0.13;98.86;97000.58;103167;1289;22526;-74
2022/12/10 00:33:43;;;;;;;9.50;7.10;;;;;;;0.12;98.93;97006.13;103231;1313;138121;-73
2022/12/10 00:36:16;;;;;;;11.50;7.70;;;;;;;0.12;98.91;97010.45;103233;1308;25465;-73
2022/12/10 00:38:44;;;;;;;8.50;6.80;;;;;;;0.13;98.96;97009.02;103261;1298;22511;-74
2022/12/10 00:41:12;;;;;;;10.70;7.20;;;;;;;0.13;98.94;97010.88;103402;1288;137757;-73
2022/12/10 00:43:40;;;;;;;8.70;6.70;;;;;;;0.14;98.96;97014.70;103367;1304;25303;-73
2022/12/10 00:46:08;;;;;;;8.30;5.70;;;;;;;0.14;98.84;97011.90;103039;1290;137743;-74
2022/12/10 00:48:35;;;;;;;8.20;6.30;;;;;;;0.14;98.96;97015.27;103275;1312;25662;-74
2022/12/10 00:51:14;;;;;;;9.20;5.40;;;;;;;0.15;99.30;97012.91;102988;1291;25378;-73
2022/12/10 00:53:42;;;;;;;;;;;;;;;0.15;99.05;97008.59;103269;1304;139517;-73
2022/12/10 00:56:11;;;;;;;8.80;5.70;;;;;;;0.15;99.07;97008.80;103278;1312;22488;-73
2022/12/10 00:58:39;;;;;;;8.70;6.00;;;;;;;0.15;98.84;97009.38;103487;1281;137831;-74
2022/12/10 01:01:14;;;;;;;9.20;5.20;;;;;;;0.15;98.97;97012.02;102860;1314;23164;-73
2022/12/10 01:03:42;;;;;;;7.70;5.50;;;;;;;0.16;99.07;97010.98;103006;1299;138522;-73
2022/12/10 01:06:16;;;;;;;8.20;5.70;;;;;;;0.17;99.11;97009.86;103074;1311;22500;-74
2022/12/10 01:08:44;;;;;;;8.80;6.40;;;;;;;0.17;99.13;97009.94;103213;1302;22484;-74
2022/12/10 01:11:15;;;;;;;6.90;5.70;;;;;;;0.17;98.94;97010.65;103150;1304;137734;-73
2022/12/10 01:13:42;;;;;;;8.50;5.50;;;;;;;0.20;99.02;97007.88;103070;1289;22496;-73
2022/12/10 01:16:12;;;;;;;7.70;5.50;;;;;;;0.20;99.01;97008.63;102980;1293;137778;-73
2022/12/10 01:18:40;;;;;;;8.10;5.90;;;;;;;0.17;98.58;97010.31;103276;1298;22493;-73
2022/12/10 01:21:13;;;;;;;9.10;5.80;;;;;;;0.17;98.83;97012.40;103732;1305;22508;-73
2022/12/10 01:23:44;;;;;;;10.70;6.50;;;;;;;0.17;98.71;97014.69;103118;1313;138053;-73
2022/12/10 01:26:14;;;;;;;8.90;6.00;;;;;;;0.15;98.56;97022.30;103359;1306;22645;-73
2022/12/10 01:28:42;;;;;;;8.00;6.10;;;;;;;0.16;98.82;97029.92;103155;1284;137831;-73
2022/12/10 01:31:16;;;;;;;9.10;6.20;;;;;;;0.16;98.90;97024.15;103265;1285;25380;-73
2022/12/10 01:33:42;;;;;;;9.10;6.20;;;;;;;0.16;98.78;97030.23;103262;1303;137903;-74
2022/12/10 01:36:16;;;;;;;9.30;6.60;;;;;;;0.17;99.19;97037.58;103261;1288;22696;-73
2022/12/10 01:38:43;;;;;;;9.60;6.80;;;;;;;0.20;99.22;97041.67;103205;1288;22604;-73
2022/12/10 01:41:35;;;;;;;9.30;6.30;;;;;;;0.22;99.21;97044.11;103193;1295;137713;-73
2022/12/10 01:44:07;;;;;;;8.20;6.20;;;;;;;0.24;99.11;97048.01;103386;1288;22483;-73
2022/12/10 01:46:40;;;;;;;8.10;6.30;;;;;;;0.25;98.82;97045.73;103322;1297;137792;-73
2022/12/10 01:49:14;;;;;;;9.70;6.70;;;;;;;0.25;98.90;97038.48;103486;1298;25330;-73
2022/12/10 01:51:44;;;;;;;8.10;6.70;;;;;;;0.25;98.78;97036.17;103114;1290;137899;-73
2022/12/10 01:54:12;;;;;;;;;;;;;;;0.26;98.94;97035.89;103417;1298;22467;-73
2022/12/10 01:56:45;;;;;;;10.40;6.80;;;;;;;0.27;98.93;97034.67;103769;1305;22525;-74
2022/12/10 01:59:13;;;;;;;8.30;6.00;;;;;;;0.27;98.96;97043.30;103295;1313;138479;-73
2022/12/10 02:01:55;;;;;;;9.60;7.30;;;;;;;0.24;98.48;97046.11;103270;1307;24290;-73
2022/12/10 02:04:32;;;;;;;9.70;6.90;;;;;;;0.24;98.61;97050.92;102865;1307;137692;-73
2022/12/10 02:07:11;;;;;;;8.40;6.40;;;;;;;0.24;98.55;97052.29;103205;1290;23376;-73
2022/12/10 02:10:03;;;;;;;9.20;6.80;;;;;;;0.22;98.55;97054.77;103151;1312;138410;-73
2022/12/10 02:12:43;;;;;;;9.90;7.00;;;;;;;0.24;98.99;97052.04;102766;1312;22546;-73
2022/12/10 02:15:18;;;;;;;8.70;6.20;;;;;;;0.27;98.99;97049.71;103139;1291;22480;-73
2022/12/10 02:17:52;;;;;;;10.80;7.30;;;;;;;0.28;98.87;97057.95;102934;1312;154185;-74
2022/12/10 02:20:24;;;;;;;7.80;5.80;;;;;;;0.27;98.63;97057.75;103104;1302;25458;-73
2022/12/10 02:23:02;;;;;;;9.60;6.00;;;;;;;0.27;98.72;97057.55;103424;1288;137785;-73
2022/12/10 02:25:41;;;;;;;7.70;5.90;;;;;;;0.28;98.75;97051.31;103103;1306;22673;-74
2022/12/10 02:28:21;;;;;;;7.80;6.20;;;;;;;0.28;98.55;97047.70;103243;1310;138320;-73
2022/12/10 02:30:51;;;;;;;8.60;6.10;;;;;;;0.27;98.66;97043.91;103169;1308;22951;-73
2022/12/10 02:33:18;;;;;;;;;;;;;;;0.27;98.76;97049.56;103095;1297;25275;-73
2022/12/10 02:35:50;;;;;;;9.80;6.30;;;;;;;0.24;98.44;97052.30;103208;1312;124223;-74
2022/12/10 02:38:23;;;;;;;8.70;6.30;;;;;;;0.21;98.72;97049.38;103127;1312;23292;-74
2022/12/10 02:40:55;;;;;;;9.70;6.80;;;;;;;0.21;98.91;97052.35;103105;1297;138051;-74
2022/12/10 02:43:24;;;;;;;8.50;6.60;;;;;;;0.21;98.71;97055.02;103144;1313;24236;-73
2022/12/10 02:45:51;;;;;;;10.30;7.00;;;;;;;0.21;98.79;97057.70;103791;1306;137957;-74
2022/12/10 02:48:20;;;;;;;11.50;7.90;;;;;;;0.20;98.83;97064.75;103199;1288;22683;-74
2022/12/10 02:50:47;;;;;;;8.90;6.40;;;;;;;0.21;98.73;97072.37;103419;1289;22674;-74
2022/12/10 02:53:14;;;;;;;9.80;6.90;;;;;;;0.21;98.91;97073.98;103109;1296;137669;-73
2022/12/10 02:56:24;;;;;;;11.00;7.10;;;;;;;0.20;98.92;97074.02;103569;1305;22593;-74
2022/12/10 02:59:19;;;;;;;10.10;6.90;;;;;;;0.22;99.02;97070.05;102439;1316;137998;-74
2022/12/10 03:02:46;;;;;;;9.40;7.00;;;;;;;0.23;98.93;97072.73;102588;1299;22592;-74
2022/12/10 03:05:20;;;;;;;11.20;8.20;;;;;;;0.23;98.78;97080.55;101906;1324;137780;-74
2022/12/10 03:08:01;;;;;;;12.80;7.50;;;;;;;0.24;99.01;97079.84;101988;1324;23228;-73
2022/12/10 03:10:46;;;;;;;11.10;7.30;;;;;;;0.27;99.19;97081.77;102047;1309;138023;-74
2022/12/10 03:13:16;;;;;;;9.80;7.30;;;;;;;0.28;98.97;97084.52;102073;1324;22528;-74
2022/12/10 03:15:45;;;;;;;10.50;7.30;;;;;;;0.28;98.77;97078.34;101916;1306;138577;-74
2022/12/10 03:18:15;;;;;;;10.80;7.20;;;;;;;0.28;98.66;97068.87;101886;1310;22554;-74
2022/12/10 03:20:45;;;;;;;8.90;7.10;;;;;;;0.28;99.05;97076.20;101867;1324;22503;-74
2022/12/10 03:23:16;;;;;;;10.80;7.60;;;;;;;0.28;98.83;97082.26;101957;1313;138606;-74
2022/12/10 03:25:46;;;;;;;9.90;7.20;;;;;;;0.27;98.99;97081.81;102421;1296;22503;-73
2022/12/10 03:28:13;;;;;;;10.50;7.50;;;;;;;0.27;98.91;97086.79;102511;1313;138042;-73
2022/12/10 03:30:43;;;;;;;11.50;8.10;;;;;;;0.27;98.90;97079.79;102238;1325;22493;-74
2022/12/10 03:33:11;;;;;;;11.70;7.50;;;;;;;0.27;99.02;97076.79;102499;1310;22532;-73
2022/12/10 03:35:40;;;;;;;9.60;6.40;;;;;;;0.28;99.11;97075.37;102647;1303;138072;-74
2022/12/10 03:38:08;;;;;;;11.40;7.50;;;;;;;0.29;98.93;97085.13;103093;1310;22644;-74
2022/12/10 03:40:35;;;;;;;11.40;6.90;;;;;;;0.28;98.73;97091.31;102977;1305;138524;-74
2022/12/10 03:43:02;;;;;;;11.50;7.70;;;;;;;0.26;98.77;97089.27;103292;1290;25264;-74
2022/12/10 03:45:29;;;;;;;9.70;7.30;;;;;;;0.26;99.09;97092.06;103328;1284;138150;-73
2022/12/10 03:47:56;;;;;;;11.80;7.70;;;;;;;0.28;98.99;97089.38;103793;1306;22494;-74
2022/12/10 03:50:23;;;;;;;13.20;7.80;;;;;;;0.30;99.37;97086.94;103298;1303;22479;-74
2022/12/10 03:52:50;;;;;;;10.70;7.60;;;;;;;0.33;99.26;97082.80;103336;1304;137941;-74
2022/12/10 03:55:17;;;;;;;12.50;7.60;;;;;;;0.34;99.47;97080.45;103246;1291;22481;-74
2022/12/10 03:57:43;;;;;;;8.60;6.40;;;;;;;0.37;99.55;97086.81;102952;1306;138651;-73
2022/12/10 04:00:11;;;;;;;8.60;6.50;;;;;;;0.38;99.04;97097.45;103086;1285;23337;-74
2022/12/10 04:02:41;;;;;;;9.70;6.30;;;;;;;0.34;98.65;97106.45;103318;1303;22463;-73
2022/12/10 04:05:08;;;;;;;10.30;7.30;;;;;;;0.34;98.91;97107.27;103482;1288;137725;-74
2022/12/10 04:07:35;;;;;;;10.30;7.50;;;;;;;0.33;98.71;97110.57;103214;1282;22460;-74
2022/12/10 04:10:03;;;;;;;12.60;6.80;;;;;;;0.32;98.85;97113.86;103304;1306;138114;-74
2022/12/10 04:12:30;;;;;;;11.40;7.50;;;;;;;0.31;98.62;97123.71;103440;1295;22472;-74
2022/12/10 04:17:49;;;;;;;10.70;8.20;;;;;;;0.30;99.20;97142.22;103180;1297;138009;-74
2022/12/10 04:28:32;;;;;;;13.50;10.40;;;;;;;0.31;99.16;97157.24;103038;1304;139383;-74
2022/12/10 04:30:59;;;;;;;11.10;8.60;;;;;;;0.30;99.23;97157.17;103341;1291;22606;-73
2022/12/10 04:33:26;;;;;;;14.80;9.60;;;;;;;0.29;99.00;97149.45;103256;1285;138053;-74
2022/12/10 04:35:54;;;;;;;14.80;10.40;;;;;;;0.29;99.04;97139.41;103360;1304;22936;-74
2022/12/10 04:38:20;;;;;;;14.70;10.30;;;;;;;0.29;99.15;97134.15;103300;1281;22521;-74
2022/12/10 04:40:47;;;;;;;12.10;8.10;;;;;;;0.30;99.32;97133.48;103042;1303;138475;-74
2022/12/10 04:43:14;;;;;;;10.90;8.00;;;;;;;0.30;99.09;97136.70;103096;1288;22151;-74
2022/12/10 04:45:42;;;;;;;10.20;6.90;;;;;;;0.30;99.14;97133.65;103444;1298;139056;-73
2022/12/10 04:48:09;;;;;;;11.80;7.70;;;;;;;0.27;98.72;97138.61;103489;1305;25926;-74
2022/12/10 04:50:35;;;;;;;8.50;6.10;;;;;;;0.24;98.62;97143.69;103190;1294;22571;-74
2022/12/10 04:53:02;;;;;;;10.50;7.50;;;;;;;0.18;98.43;97155.27;103168;1289;137765;-74
2022/12/10 04:55:29;;;;;;;9.20;6.80;;;;;;;0.15;98.82;97155.16;103060;1313;23890;-74
2022/12/10 04:57:57;;;;;;;13.00;8.70;;;;;;;0.12;99.14;97155.36;103187;1288;137883;-73
2022/12/10 05:00:24;;;;;;;13.30;9.20;;;;;;;0.11;99.32;97160.15;103110;1305;22612;-73
2022/12/10 05:02:51;;;;;;;11.70;7.70;;;;;;;0.10;99.28;97152.13;103508;1298;22540;-73
2022/12/10 05:05:18;;;;;;;14.50;8.80;;;;;;;0.10;99.34;97150.02;103400;1298;137943;-73
2022/12/10 05:07:45;;;;;;;14.20;8.80;;;;;;;0.11;99.68;97154.27;103181;1301;22526;-73
2022/12/10 05:10:12;;;;;;;13.00;8.40;;;;;;;0.12;99.40;97161.14;103064;1313;138128;-73
2022/12/10 05:12:39;;;;;;;13.80;8.10;;;;;;;0.08;99.07;97167.16;103298;1313;22484;-73
2022/12/10 05:15:06;;;;;;;10.50;7.70;;;;;;;0.06;99.39;97168.36;103326;1288;22518;-74
2022/12/10 05:17:33;;;;;;;12.30;8.40;;;;;;;0.06;99.47;97165.69;103293;1307;137930;-74
2022/12/10 05:20:00;;;;;;;13.80;8.50;;;;;;;0.06;99.44;97156.63;103064;1281;25213;-73
2022/12/10 05:25:12;;;;;;;11.20;7.70;;;;;;;0.03;99.51;97163.06;103111;1289;22740;-73
2022/12/10 05:27:39;;;;;;;11.30;7.30;;;;;;;0.03;99.56;97177.30;102948;1306;138678;-73
2022/12/10 05:30:07;;;;;;;12.20;8.20;;;;;;;0.02;99.57;97178.05;103063;1297;25683;-73
2022/12/10 05:32:34;;;;;;;10.50;7.60;;;;;;;0.03;99.95;97186.25;103658;1290;23235;-74
2022/12/10 05:35:01;;;;;;;12.60;8.40;;;;;;;0.04;99.89;97194.36;102194;1295;1213703;-73
2022/12/10 05:37:28;;;;;;;14.90;9.30;;;;;;;0.04;99.84;97201.73;103419;1288;22980;-74
2022/12/10 05:39:55;;;;;;;14.20;9.70;;;;;;;0.06;99.86;97212.67;103326;1305;138835;-73
2022/12/10 05:42:22;;;;;;;14.30;9.70;;;;;;;0.10;100.00;97219.73;103238;1303;22605;-73
2022/12/10 05:44:49;;;;;;;17.10;10.50;;;;;;;0.15;100.00;97227.47;103160;1304;25482;-73
2022/12/10 05:47:15;;;;;;;19.00;11.40;;;;;;;0.19;100.00;97231.39;104787;1293;139419;-73
2022/12/10 05:49:42;;;;;;;20.20;10.90;;;;;;;0.24;100.00;97228.78;103083;1306;22473;-73
2022/12/10 05:52:09;;;;;;;13.40;9.40;;;;;;;0.27;100.00;97218.15;103135;1291;140568;-73
2022/12/10 05:54:36;;;;;;;15.80;10.90;;;;;;;0.30;100.00;97215.41;103111;1312;22553;-73
2022/12/10 05:57:03;;;;;;;15.50;10.00;;;;;;;0.33;99.98;97220.39;103272;1304;22487;-73
2022/12/10 05:59:30;;;;;;;14.60;9.40;;;;;;;0.37;100.00;97224.52;103216;1291;138082;-73
2022/12/10 06:01:56;;;;;;;14.60;9.40;;;;;;;0.40;100.00;97217.48;103149;1295;25425;-73
2022/12/10 06:04:23;;;;;;;15.60;10.00;;;;;;;0.42;99.98;97206.11;103143;1304;138254;-73
2022/12/10 06:06:50;;;;;;;14.70;9.30;;;;;;;0.45;100.00;97199.48;103028;1298;22500;-73
2022/12/10 06:09:17;;;;;;;13.40;9.20;;;;;;;0.44;99.46;97193.33;103230;1310;22483;-73
2022/12/10 06:11:44;;;;;;;13.00;8.80;;;;;;;0.40;99.05;97191.00;103150;1297;138385;-73
2022/12/10 06:14:11;;;;;;;10.40;7.10;;;;;;;0.36;98.88;97191.71;103193;1299;22481;-73
2022/12/10 06:16:39;;;;;;;14.00;9.20;;;;;;;0.33;98.82;97203.20;102955;1282;138021;-74
2022/12/10 06:19:05;;;;;;;13.50;8.70;;;;;;;0.30;98.76;97203.48;103036;1291;22488;-74
2022/12/10 06:21:34;;;;;;;15.10;9.60;;;;;;;0.27;98.81;97202.63;103164;1298;138778;-74
2022/12/10 06:24:02;;;;;;;15.40;9.40;;;;;;;0.27;99.14;97199.61;103181;1291;24219;-73
2022/12/10 06:26:29;;;;;;;13.70;9.50;;;;;;;0.28;99.49;97190.34;103237;1291;22869;-73
2022/12/10 06:28:57;;;;;;;15.90;9.50;;;;;;;0.30;99.51;97192.80;102892;1290;138067;-73
2022/12/10 06:31:24;;;;;;;12.50;7.70;;;;;;;0.31;99.59;97191.93;103110;1292;22514;-73
2022/12/10 06:33:52;;;;;;;12.60;8.70;;;;;;;0.32;99.36;97193.78;102900;1299;138061;-73
2022/12/10 06:36:20;;;;;;;12.80;9.10;;;;;;;0.33;99.40;97201.44;103087;1313;24344;-73
2022/12/10 06:38:48;;;;;;;16.20;9.00;;;;;;;0.35;99.38;97209.06;103590;1311;24275;-73
2022/12/10 06:41:17;;;;;;;14.80;8.60;;;;;;;0.37;99.39;97212.02;103116;1311;137889;-73
2022/12/10 06:43:44;;;;;;;14.00;8.80;;;;;;;0.37;99.33;97216.38;103307;1313;22484;-74
2022/12/10 06:46:14;;;;;;;14.10;8.90;;;;;;;0.39;99.33;97226.27;103197;1289;138480;-73
2022/12/10 06:48:41;;;;;;;14.70;9.90;;;;;;;0.40;99.06;97230.30;102984;1295;22627;-73
2022/12/10 06:51:09;;;;;;;13.80;8.90;;;;;;;0.42;98.90;97235.94;103190;1286;22488;-73
2022/12/10 06:53:37;;;;;;;13.20;8.50;;;;;;;0.42;98.88;97243.98;103072;1288;138394;-73
2022/12/10 06:56:06;;;;;;;13.90;9.00;;;;;;;0.40;98.66;97249.21;103236;1298;22472;-73
2022/12/10 06:58:34;;;;;;;14.60;9.70;;;;;;;0.41;98.90;97250.08;103079;1288;138078;-73
2022/12/10 07:01:06;;;;;;;14.10;9.20;;;;;;;0.42;99.34;97253.25;103104;1285;22470;-73
2022/12/10 07:03:33;;;;;;;13.80;9.20;;;;;;;0.43;98.82;97260.33;102977;1305;138152;-73
2022/12/10 07:06:01;;;;;;;18.70;10.30;;;;;;;0.41;98.71;97265.15;103199;1307;22857;-73
2022/12/10 07:08:28;;;;;;;15.00;10.30;;;;;;;0.40;98.63;97268.53;103087;1312;22556;-73
2022/12/10 07:10:56;;;;;;;23.40;12.40;;;;;;;0.38;98.50;97280.86;102954;1280;138198;-73
2022/12/10 07:13:24;;;;;;;16.00;10.80;;;;;;;0.41;98.64;97288.63;102958;1290;22697;-74
2022/12/10 07:15:52;;;;;;;18.60;11.80;;;;;;;0.42;98.84;97293.21;103202;1311;138320;-73
2022/12/10 07:18:18;;;;;;;18.30;11.70;;;;;;;0.47;99.36;97283.27;103045;1298;23302;-73
2022/12/10 07:20:45;;;;;;;22.10;11.90;;;;;;;0.52;99.35;97280.66;103090;1313;24067;-73
2022/12/10 07:23:12;;;;;;;18.90;12.80;;;;;;;0.53;99.06;97281.92;103227;1313;138616;-73
2022/12/10 07:25:39;;;;;;;19.10;11.30;;;;;;;0.53;98.70;97279.87;103176;1313;22624;-73
2022/12/10 07:28:06;;;;;;;21.80;12.30;;;;;;;0.54;98.55;97280.75;103254;1289;138520;-74
2022/12/10 07:30:33;;;;;;;20.20;12.20;;;;;;;0.55;98.61;97282.92;103116;1312;24277;-73
2022/12/10 07:33:00;;;;;;;21.80;12.20;;;;;;;0.58;98.61;97291.94;103225;1312;22470;-73
2022/12/10 07:35:27;;;;;;;20.80;12.50;;;;;;;0.58;98.31;97296.06;103160;1296;138375;-73
2022/12/10 07:37:53;;;;;;;20.00;12.60;;;;;;;0.60;98.40;97297.25;103801;1289;25399;-74
2022/12/10 07:40:20;;;;;;;21.20;12.70;;;;;;;0.63;98.57;97294.15;103090;1312;138249;-73
2022/12/10 07:42:47;;;;;;;23.50;12.60;;;;;;;0.65;98.43;97290.15;103206;1291;23888;-74
2022/12/10 07:45:14;;;;;;;21.30;13.30;;;;;;;0.66;98.02;97293.61;103404;1289;23914;-74
2022/12/10 07:47:41;;;;;;;22.20;12.90;;;;;;;0.64;97.92;97297.16;103141;1312;138467;-74
2022/12/10 07:50:08;;;;;;;25.30;15.30;;;;;;;0.65;97.92;97299.38;103205;1311;22601;-73
2022/12/10 07:52:35;;;;;;;24.60;13.00;;;;;;;0.64;97.79;97296.37;103225;1312;138109;-74
2022/12/10 07:55:02;;;;;;;24.80;13.80;;;;;;;0.64;97.94;97295.92;103348;1303;24244;-74
2022/12/10 07:57:30;;;;;;;26.30;14.30;;;;;;;0.65;97.67;97291.23;103043;1311;22603;-74
2022/12/10 07:59:58;;;;;;;23.90;14.10;;;;;;;0.67;97.95;97282.60;103221;1309;138000;-74
2022/12/10 08:02:25;;;;;;;25.30;13.40;;;;;;;0.71;97.95;97281.47;103220;1312;24341;-74
2022/12/10 08:04:52;;;;;;;25.90;13.80;;;;;;;0.72;97.81;97282.66;103633;1303;138153;-74
2022/12/10 08:07:19;;;;;;;20.80;11.50;;;;;;;0.77;97.82;97282.81;103192;1308;22479;-74
2022/12/10 08:09:46;;;;;;;23.70;13.80;;;;;;;0.78;97.48;97282.08;103250;1286;138855;-74
2022/12/10 08:12:13;;;;;;;23.10;12.90;;;;;;;0.83;97.85;97283.83;103387;1313;22498;-74
2022/12/10 08:14:40;;;;;;;23.30;13.20;;;;;;;0.91;97.95;97281.02;103267;1307;22532;-74
2022/12/10 08:17:06;;;;;;;23.40;13.70;;;;;;;0.95;97.69;97282.73;103114;1312;138759;-74
2022/12/10 08:19:33;;;;;;;24.40;13.40;;;;;;;0.99;97.16;97292.34;103078;1312;22517;-74
2022/12/10 08:22:00;;;;;;;22.00;13.60;;;;;;;1.02;97.35;97291.67;103216;1298;138456;-74
2022/12/10 08:24:27;;;;;;;21.70;12.60;;;;;;;1.04;97.05;97293.44;103372;1312;24247;-74
2022/12/10 08:26:54;;;;;;;24.00;13.70;;;;;;;1.05;96.74;97296.73;103420;1288;24258;-74
2022/12/10 08:29:21;;;;;;;20.60;13.10;;;;;;;1.06;96.74;97304.84;103105;1297;138962;-74
2022/12/10 08:31:47;;;;;;;23.20;13.70;;;;;;;1.07;96.96;97308.77;103266;1312;23250;-74
2022/12/10 08:34:17;;;;;;;21.10;12.60;;;;;;;1.12;97.33;97315.21;103294;1311;138272;-74
2022/12/10 08:36:45;;;;;;;23.60;13.10;;;;;;;1.18;97.29;97323.65;103654;1306;25413;-74
2022/12/10 08:39:16;;;;;;;25.50;12.00;;;;;;;1.20;96.81;97321.29;103389;1294;22489;-74
2022/12/10 08:41:44;;;;;;;22.70;12.80;;;;;;;1.20;96.38;97319.92;103175;1303;138442;-74
2022/12/10 08:44:12;;;;;;;23.10;13.90;;;;;;;1.21;96.14;97314.40;103259;1309;25323;-74
2022/12/10 08:46:39;;;;;;;21.70;12.60;;;;;;;1.22;96.14;97314.02;103080;1312;138330;-74
2022/12/10 08:49:07;;;;;;;24.60;13.30;;;;;;;1.28;96.35;97311.59;103401;1298;25289;-74
2022/12/10 08:51:33;;;;;;;19.80;12.20;;;;;;;1.32;96.34;97311.91;103018;1312;138270;-74
2022/12/10 08:54:00;;;;;;;23.10;13.00;;;;;;;1.34;95.98;97309.55;103283;1297;22769;-73
2022/12/10 08:56:27;;;;;;;20.70;13.20;;;;;;;1.36;95.79;97310.23;103525;1287;25460;-74
2022/12/10 08:58:54;;;;;;;19.40;12.10;;;;;;;1.39;96.21;97308.31;103541;1298;138075;-74
2022/12/10 09:01:21;;;;;;;18.90;11.40;;;;;;;1.43;96.02;97305.98;103115;1313;25357;-74
2022/12/10 09:03:49;;;;;;;22.70;13.70;;;;;;;1.45;95.59;97309.94;102974;1303;138657;-74
2022/12/10 09:06:19;;;;;;;21.60;12.40;;;;;;;1.48;95.60;97306.86;103079;1313;22638;-74
2022/12/10 09:08:46;;;;;;;18.30;11.90;;;;;;;1.49;95.22;97302.08;103013;1305;24234;-74
2022/12/10 09:11:20;;;;;;;21.10;13.10;;;;;;;1.50;95.15;97300.82;103008;1311;138194;-74
2022/12/10 09:13:46;;;;;;;20.80;13.00;;;;;;;1.54;95.07;97301.43;102941;1303;24253;-74
2022/12/10 09:16:13;;;;;;;21.70;12.60;;;;;;;1.58;94.96;97304.58;102874;1312;138934;-74
2022/12/10 09:18:40;;;;;;;21.40;13.00;;;;;;;1.64;95.19;97299.13;102932;1295;25329;-74
2022/12/10 09:21:10;;;;;;;19.80;12.50;;;;;;;1.73;95.72;97303.33;103041;1303;22488;-74
2022/12/10 09:23:37;;;;;;;20.60;12.50;;;;;;;1.81;95.29;97308.02;102961;1301;140086;-74
2022/12/10 09:26:09;;;;;;;23.10;14.20;;;;;;;1.83;94.61;97309.45;103103;1295;25487;-74
2022/12/10 09:28:37;;;;;;;18.30;12.40;;;;;;;1.86;94.52;97303.06;103001;1288;138139;-74
2022/12/10 09:31:05;;;;;;;22.60;13.30;;;;;;;1.93;94.54;97295.90;103295;1288;22911;-74
2022/12/10 09:33:33;;;;;;;21.00;13.40;;;;;;;1.98;94.14;97293.77;102947;1312;22454;-74
2022/12/10 09:36:04;;;;;;;19.70;12.40;;;;;;;2.00;93.53;97293.83;103032;1312;24513;-74
2022/12/10 09:38:31;;;;;;;19.40;13.40;;;;;;;1.96;93.10;97290.93;103272;1312;22475;-74
2022/12/10 09:41:04;;;;;;;21.70;13.90;;;;;;;2.00;93.75;97285.41;103241;1296;140105;-73
2022/12/10 09:43:50;;;;;;;23.00;14.50;;;;;;;2.08;93.90;97283.60;103579;1304;22489;-73
2022/12/10 09:46:45;;;;;;;24.70;14.70;;;;;;;2.18;94.11;97283.23;103369;1294;138997;-73
2022/12/10 09:49:23;;;;;;;23.60;15.50;;;;;;;2.32;94.20;97276.48;103281;1298;22595;-74
2022/12/10 09:51:56;;;;;;;24.20;15.70;;;;;;;2.48;93.96;97280.71;103140;1312;138718;-74
2022/12/10 09:54:33;;;;;;;28.10;16.00;;;;;;;2.57;93.19;97283.35;103267;1299;22546;-74
2022/12/10 09:57:04;;;;;;;21.50;13.50;;;;;;;2.60;92.29;97285.52;103237;1297;22734;-74
2022/12/10 09:59:37;;;;;;;20.40;13.20;;;;;;;2.57;91.39;97284.96;103295;1312;138030;-74
2022/12/10 10:02:19;;;;;;;21.10;13.70;;;;;;;2.57;92.10;97288.36;103234;1311;22493;-74
2022/12/10 10:04:47;;;;;;;25.50;13.70;;;;;;;2.57;91.34;97288.04;103166;1313;138072;-74
2022/12/10 10:07:21;;;;;;;21.90;13.40;;;;;;;2.53;91.18;97287.70;103259;1304;23920;-74
2022/12/10 10:09:49;;;;;;;20.40;13.20;;;;;;;2.51;91.07;97294.02;103382;1309;138260;-74
2022/12/10 10:12:16;;;;;;;25.30;14.60;;;;;;;2.50;90.99;97294.42;103438;1290;22484;-74
2022/12/10 10:14:44;;;;;;;21.40;14.00;;;;;;;2.46;90.97;97286.70;103411;1312;24293;-74
2022/12/10 10:17:35;;;;;;;22.90;14.50;;;;;;;2.44;91.28;97286.23;103991;1303;138130;-74
2022/12/10 10:20:02;;;;;;;19.60;14.20;;;;;;;2.42;90.67;97295.48;103533;1302;24254;-74
2022/12/10 10:22:31;;;;;;;21.50;13.20;;;;;;;2.37;90.48;97291.89;103324;1313;140238;-74
2022/12/10 10:25:02;;;;;;;20.50;12.40;;;;;;;2.35;90.89;97286.67;103909;1304;22460;-74
2022/12/10 10:27:30;;;;;;;20.50;13.50;;;;;;;2.35;90.86;97284.48;103290;1304;22476;-74
2022/12/10 10:30:01;;;;;;;22.90;13.70;;;;;;;2.37;91.01;97286.55;103703;1313;138844;-74
2022/12/10 10:32:37;;;;;;;23.20;13.40;;;;;;;2.33;90.51;97284.29;103486;1298;25208;-74
2022/12/10 10:35:05;;;;;;;22.20;13.60;;;;;;;2.34;90.88;97282.13;103201;1310;138145;-74
2022/12/10 10:37:35;;;;;;;22.00;13.80;;;;;;;2.36;91.05;97273.44;103717;1312;22497;-74
2022/12/10 10:40:02;;;;;;;21.00;13.20;;;;;;;2.42;91.36;97271.64;103125;1312;138302;-74
2022/12/10 10:42:38;;;;;;;20.60;13.40;;;;;;;2.49;90.87;97271.77;103463;1312;22681;-74
2022/12/10 10:45:26;;;;;;;19.90;12.80;;;;;;;2.51;90.11;97270.10;103349;1310;23667;-74
2022/12/10 10:48:12;;;;;;;19.30;12.70;;;;;;;2.59;90.70;97265.31;103171;1291;138485;-74
2022/12/10 10:50:49;;;;;;;21.40;13.70;;;;;;;2.71;90.62;97258.23;103180;1292;22617;-74
2022/12/10 10:53:44;;;;;;;20.80;12.90;;;;;;;2.80;90.20;97266.89;103022;1312;138466;-74
2022/12/10 10:56:19;;;;;;;19.90;13.50;;;;;;;2.82;89.71;97275.59;103222;1298;22505;-74
2022/12/10 10:59:01;;;;;;;22.10;14.00;;;;;;;2.78;88.99;97283.92;103452;1312;138253;-74
2022/12/10 11:01:59;;;;;;;24.30;13.90;;;;;;;2.68;88.83;97287.08;103334;1291;22817;-74
2022/12/10 11:04:36;;;;;;;21.60;13.10;;;;;;;2.56;88.79;97290.15;103631;1310;138180;-74
2022/12/10 11:07:13;;;;;;;20.40;12.60;;;;;;;2.50;89.34;97290.09;103200;1311;24246;-75
2022/12/10 11:09:40;;;;;;;21.50;14.30;;;;;;;2.45;89.38;97286.61;103192;1304;139101;-75
2022/12/10 11:12:28;;;;;;;22.20;13.40;;;;;;;2.42;89.41;97290.54;103401;1311;22565;-74
2022/12/10 11:14:55;;;;;;;20.00;12.30;;;;;;;2.37;89.34;97290.98;103183;1297;22617;-74
2022/12/10 11:17:24;;;;;;;22.20;14.20;;;;;;;2.32;89.28;97292.27;103036;1290;138080;-74
2022/12/10 11:20:15;;;;;;;19.90;12.70;;;;;;;2.28;89.31;97291.99;103233;1305;22480;-75
2022/12/10 11:23:07;;;;;;;26.00;14.50;;;;;;;2.22;89.38;97282.59;103117;1300;138092;-75
2022/12/10 11:25:42;;;;;;;26.70;15.90;;;;;;;2.21;89.68;97291.96;102993;1304;22493;-75
2022/12/10 11:28:37;;;;;;;25.00;14.40;;;;;;;2.18;89.83;97292.36;103382;1294;138722;-74
2022/12/10 11:31:07;;;;;;;24.80;14.20;;;;;;;2.13;89.66;97295.34;103035;1313;24253;-74
2022/12/10 11:33:49;;;;;;;27.20;14.90;;;;;;;2.08;89.86;97292.45;103146;1287;22517;-74
2022/12/10 11:36:41;;;;;;;27.70;14.90;;;;;;;2.00;89.47;97293.80;103122;1303;22498;-74
2022/12/10 11:39:17;;;;;;;24.00;14.10;;;;;;;1.89;89.60;97289.34;102971;1304;23962;-74
2022/12/10 11:41:48;;;;;;;24.40;14.00;;;;;;;1.82;90.05;97287.73;102961;1303;138072;-74
2022/12/10 11:44:39;;;;;;;26.10;14.50;;;;;;;1.77;90.06;97293.19;103193;1311;22536;-74
2022/12/10 11:47:25;;;;;;;26.60;14.50;;;;;;;1.76;90.74;97294.06;103065;1303;138142;-74
2022/12/10 11:50:01;;;;;;;31.20;15.30;;;;;;;1.69;90.40;97288.86;103124;1304;22481;-74
2022/12/10 11:52:46;;;;;;;31.60;15.60;;;;;;;1.65;90.37;97288.43;103027;1301;138736;-74